Time;durP1;ratioP1;P1;durP2;ratioP2;P2;SDS_P1;SDS_P2;PMS_P1;PMS_P2;Temp;Humidity;BMP_temperature;BMP_pressure;BME280_temperature;BME280_humidity;BME280_pressure;Samples;Min_cycle;Max_cycle;Signal;HPM_P1;HPM_P2
2022/12/27 00:00:21;;;;;;;2.27;1.83;;;3.10;99.90;;;;;;5017047;28;20178;-88
2022/12/27 00:02:47;;;;;;;6.00;2.27;;;3.10;99.90;;;;;;5016667;28;20194;-88
2022/12/27 00:05:14;;;;;;;3.77;2.10;;;3.10;99.90;;;;;;5017175;28;20174;-89
2022/12/27 00:07:40;;;;;;;4.17;1.90;;;3.20;99.90;;;;;;5034682;28;20176;-89
2022/12/27 00:10:07;;;;;;;6.87;2.10;;;3.10;99.90;;;;;;5017083;28;20201;-89
2022/12/27 00:12:33;;;;;;;3.47;2.03;;;2.90;99.90;;;;;;5016661;28;20206;-88
2022/12/27 00:14:58;;;;;;;3.10;1.80;;;2.80;99.90;;;;;;5017087;28;20177;-88
2022/12/27 00:17:24;;;;;;;3.67;2.27;;;2.80;99.90;;;;;;5016954;28;20209;-88
2022/12/27 00:19:50;;;;;;;5.93;2.33;;;2.80;99.90;;;;;;5034620;28;20233;-87
2022/12/27 00:22:15;;;;;;;4.27;2.10;;;2.60;99.90;;;;;;5034055;28;20246;-88
2022/12/27 00:24:41;;;;;;;5.67;2.13;;;2.50;99.90;;;;;;5016444;28;20188;-88
2022/12/27 00:27:06;;;;;;;5.33;2.00;;;2.50;99.90;;;;;;5034023;28;20177;-88
2022/12/27 00:29:32;;;;;;;4.03;1.77;;;2.50;99.90;;;;;;5034470;28;20260;-86
2022/12/27 00:31:58;;;;;;;6.50;1.93;;;2.50;99.90;;;;;;5016764;28;20211;-88
2022/12/27 00:34:23;;;;;;;6.80;2.10;;;2.50;99.90;;;;;;5033792;28;20215;-89
2022/12/27 00:36:49;;;;;;;4.00;1.93;;;2.50;99.90;;;;;;5034156;28;20343;-88
2022/12/27 00:39:14;;;;;;;7.73;2.20;;;2.50;99.90;;;;;;5034216;28;20186;-88
2022/12/27 00:41:40;;;;;;;4.77;2.03;;;2.60;99.90;;;;;;5034239;28;20177;-88
2022/12/27 00:44:06;;;;;;;4.73;2.00;;;2.60;99.90;;;;;;5015852;28;20181;-88
2022/12/27 00:46:31;;;;;;;3.93;1.70;;;2.60;99.90;;;;;;5034353;28;20236;-89
2022/12/27 00:48:57;;;;;;;3.87;1.83;;;2.70;99.90;;;;;;5033936;28;20182;-88
2022/12/27 00:51:23;;;;;;;3.67;1.70;;;2.70;99.90;;;;;;5033905;28;20188;-87
2022/12/27 00:53:50;;;;;;;2.87;1.60;;;2.80;99.90;;;;;;5015712;28;20198;-89
2022/12/27 00:56:20;;;;;;;5.53;1.80;;;2.70;99.90;;;;;;5015815;28;20202;-89
2022/12/27 00:58:46;;;;;;;4.63;1.80;;;2.70;99.90;;;;;;5015601;28;20236;-88
2022/12/27 01:01:15;;;;;;;4.83;2.00;;;2.70;99.90;;;;;;5016099;28;20175;-88
2022/12/27 01:03:41;;;;;;;3.97;1.90;;;2.60;99.90;;;;;;5032696;28;20648;-88
2022/12/27 01:06:10;;;;;;;5.23;2.00;;;2.50;99.90;;;;;;5033549;28;20272;-88
2022/12/27 01:08:37;;;;;;;4.17;1.90;;;2.30;99.90;;;;;;5015768;28;20280;-88
2022/12/27 01:11:03;;;;;;;4.63;2.50;;;2.20;99.90;;;;;;5015763;28;20184;-88
2022/12/27 01:13:29;;;;;;;4.37;2.23;;;2.20;99.90;;;;;;5015014;28;20725;-87
2022/12/27 01:15:55;;;;;;;5.67;2.33;;;2.10;99.90;;;;;;5015858;28;20210;-87
2022/12/27 01:18:21;;;;;;;6.77;2.40;;;2.10;99.90;;;;;;5016292;28;20173;-87
2022/12/27 01:20:46;;;;;;;5.03;2.50;;;2.00;99.90;;;;;;5033100;28;20174;-88
2022/12/27 01:23:12;;;;;;;6.47;2.67;;;2.00;99.90;;;;;;5032557;28;20220;-88
2022/12/27 01:25:38;;;;;;;5.13;2.43;;;2.00;99.90;;;;;;5015753;28;20175;-87
2022/12/27 01:28:03;;;;;;;3.23;2.20;;;1.90;99.90;;;;;;5015131;28;20634;-89
2022/12/27 01:30:29;;;;;;;6.60;2.73;;;1.90;99.90;;;;;;5033019;28;20197;-87
2022/12/27 01:32:55;;;;;;;4.90;2.70;;;1.80;99.90;;;;;;5032482;28;20194;-87
2022/12/27 01:35:20;;;;;;;6.70;2.37;;;1.80;99.90;;;;;;5015459;28;20171;-88
2022/12/27 01:37:46;;;;;;;5.73;2.40;;;1.80;99.90;;;;;;5014996;28;20198;-87
2022/12/27 01:40:11;;;;;;;5.70;2.40;;;1.80;99.90;;;;;;5015385;28;20633;-87
2022/12/27 01:42:52;;;;;;;6.23;2.83;;;1.80;99.90;;;;;;5014562;28;20186;-87
2022/12/27 01:45:22;;;;;;;5.53;2.10;;;1.80;99.90;;;;;;5014362;28;20166;-85
2022/12/27 01:47:54;;;;;;;6.50;2.60;;;1.80;99.90;;;;;;5032672;28;20187;-87
2022/12/27 01:50:34;;;;;;;6.30;2.90;;;1.80;99.90;;;;;;5032558;28;20249;-87
2022/12/27 01:52:59;;;;;;;6.37;2.43;;;1.80;99.90;;;;;;5032024;28;20210;-87
2022/12/27 01:55:44;;;;;;;7.63;2.10;;;1.70;99.90;;;;;;5032163;28;20181;-87
2022/12/27 01:58:15;;;;;;;4.00;2.30;;;1.70;99.90;;;;;;5014822;28;20186;-88
2022/12/27 02:00:44;;;;;;;3.83;2.20;;;1.70;99.90;;;;;;5015113;28;20175;-87
2022/12/27 02:03:12;;;;;;;4.43;2.20;;;1.70;99.90;;;;;;5014215;28;20267;-87
2022/12/27 02:05:40;;;;;;;3.40;2.03;;;1.80;99.90;;;;;;5014713;28;20226;-87
2022/12/27 02:08:20;;;;;;;4.70;2.00;;;1.90;99.90;;;;;;5015068;28;20266;-88
2022/12/27 02:10:47;;;;;;;4.00;2.10;;;2.00;99.90;;;;;;5032620;28;20164;-87
2022/12/27 02:13:14;;;;;;;5.07;2.40;;;2.00;99.90;;;;;;5031699;28;20198;-87
2022/12/27 02:15:39;;;;;;;3.23;1.90;;;2.00;99.90;;;;;;5014725;28;20178;-88
2022/12/27 02:18:05;;;;;;;2.80;2.00;;;2.10;99.90;;;;;;5032587;28;20318;-87
2022/12/27 02:21:07;;;;;;;6.30;2.50;;;2.00;99.90;;;;;;5014862;28;20270;-87
2022/12/27 02:24:05;;;;;;;4.70;2.20;;;2.00;99.90;;;;;;5031735;28;20196;-87
2022/12/27 02:26:59;;;;;;;4.57;1.90;;;2.00;99.90;;;;;;5032522;28;20167;-87
2022/12/27 02:29:46;;;;;;;3.97;2.20;;;2.00;99.90;;;;;;5032404;28;20220;-87
2022/12/27 02:32:24;;;;;;;4.90;2.53;;;2.00;99.90;;;;;;5014444;28;20205;-88
2022/12/27 02:35:21;;;;;;;5.37;2.03;;;2.00;99.90;;;;;;5032065;28;20250;-87
2022/12/27 02:37:54;;;;;;;2.83;1.93;;;1.90;99.90;;;;;;5032337;28;20191;-87
2022/12/27 02:54:51;;;;;;;3.43;2.13;;;2.00;99.90;;;;;;5031708;28;20161;-87
2022/12/27 02:57:26;;;;;;;3.10;1.87;;;1.90;99.90;;;;;;5032092;28;20194;-87
2022/12/27 03:03:38;;;;;;;4.33;2.10;;;1.90;99.90;;;;;;5031664;28;20194;-87
2022/12/27 03:15:53;;;;;;;5.83;2.20;;;1.80;99.90;;;;;;5035512;28;20578;-88
2022/12/27 03:18:19;;;;;;;6.07;2.13;;;1.80;99.90;;;;;;5035299;28;20316;-87
2022/12/27 03:26:19;;;;;;;4.30;2.00;;;2.00;99.90;;;;;;5035262;28;20529;-86
2022/12/27 03:34:38;;;;;;;4.07;2.10;;;2.20;99.90;;;;;;5035087;28;20174;-87
2022/12/27 03:40:09;;;;;;;4.07;2.17;;;2.30;99.90;;;;;;5035271;28;20247;-87
2022/12/27 03:48:21;;;;;;;4.90;2.50;;;2.30;99.90;;;;;;5035156;28;20166;-88
2022/12/27 03:50:56;;;;;;;4.23;2.00;;;2.40;99.90;;;;;;5017136;28;20229;-88
2022/12/27 03:53:33;;;;;;;5.67;2.57;;;2.40;99.90;;;;;;5062983;22;20600;-82
2022/12/27 03:55:59;;;;;;;3.90;2.10;;;2.50;99.90;;;;;;5037375;28;20167;-81
2022/12/27 03:58:24;;;;;;;3.17;2.13;;;2.50;99.90;;;;;;5037474;28;20176;-80
2022/12/27 04:00:50;;;;;;;4.73;2.77;;;2.50;99.90;;;;;;5037569;28;20320;-81
2022/12/27 04:03:15;;;;;;;3.33;2.13;;;2.50;99.90;;;;;;5055177;28;20206;-81
2022/12/27 04:05:41;;;;;;;3.20;2.20;;;2.40;99.90;;;;;;5037923;28;20181;-81
2022/12/27 04:35:27;;;;;;;3.30;1.90;;;2.20;99.90;;;;;;5056273;28;20188;-81
2022/12/27 04:37:53;;;;;;;5.97;2.13;;;2.20;99.90;;;;;;5037726;28;20679;-81
2022/12/27 04:56:43;;;;;;;4.70;2.00;;;2.30;99.90;;;;;;5056374;28;20188;-80
2022/12/27 05:02:04;;;;;;;2.87;1.90;;;2.30;99.90;;;;;;5036365;28;20163;-81
2022/12/27 05:04:31;;;;;;;2.97;2.00;;;2.30;99.90;;;;;;5018661;28;20625;-81
2022/12/27 05:06:57;;;;;;;3.60;1.90;;;2.30;99.90;;;;;;5019148;28;20180;-81
2022/12/27 05:14:55;;;;;;;3.40;1.87;;;2.20;99.90;;;;;;5036961;28;20209;-81
2022/12/27 05:17:20;;;;;;;5.10;2.10;;;2.20;99.90;;;;;;5018784;28;20194;-80
2022/12/27 05:19:46;;;;;;;4.33;2.10;;;2.10;99.90;;;;;;5018968;28;20326;-81
2022/12/27 05:27:39;;;;;;;2.00;1.70;;;2.10;99.90;;;;;;5053851;28;20530;-80
2022/12/27 05:30:05;;;;;;;2.00;1.50;;;2.10;99.90;;;;;;5052764;28;20257;-79
2022/12/27 05:32:31;;;;;;;7.70;1.63;;;2.10;99.90;;;;;;5052946;28;20652;-80
2022/12/27 05:34:57;;;;;;;3.47;1.80;;;2.10;99.90;;;;;;5035389;28;20178;-81
2022/12/27 05:37:22;;;;;;;3.27;1.80;;;2.10;99.90;;;;;;5053984;28;20186;-80
2022/12/27 05:39:48;;;;;;;3.00;1.60;;;2.00;99.90;;;;;;5053573;28;20169;-81
2022/12/27 05:42:13;;;;;;;3.97;1.90;;;2.00;99.90;;;;;;5035143;28;20210;-77
2022/12/27 05:44:39;;;;;;;3.33;1.60;;;2.00;99.90;;;;;;5053328;28;20181;-80
2022/12/27 05:47:04;;;;;;;4.47;1.80;;;2.00;99.90;;;;;;5035357;28;20170;-80
2022/12/27 05:49:30;;;;;;;3.17;1.77;;;2.00;99.90;;;;;;5035362;28;20174;-80
2022/12/27 05:51:55;;;;;;;2.97;2.00;;;2.00;99.90;;;;;;5035158;28;20177;-79
2022/12/27 05:54:21;;;;;;;2.17;1.60;;;2.00;99.90;;;;;;5034444;28;20197;-80
2022/12/27 05:56:47;;;;;;;3.67;1.90;;;2.10;99.90;;;;;;5034522;28;20292;-78
2022/12/27 05:59:12;;;;;;;4.00;1.70;;;2.20;99.90;;;;;;5035207;28;20245;-79
2022/12/27 06:01:38;;;;;;;5.23;1.53;;;2.30;99.90;;;;;;5053219;28;20234;-79
2022/12/27 06:04:03;;;;;;;3.90;1.70;;;2.30;99.90;;;;;;5034787;28;20227;-79
2022/12/27 06:06:29;;;;;;;3.63;1.70;;;2.30;99.90;;;;;;5035612;28;20170;-79
2022/12/27 06:08:54;;;;;;;4.13;1.73;;;2.20;99.90;;;;;;5053878;28;20194;-81
2022/12/27 06:11:20;;;;;;;2.97;1.60;;;2.20;99.90;;;;;;5053799;28;20174;-81
2022/12/27 06:13:52;;;;;;;2.77;1.50;;;2.30;99.90;;;;;;5035309;28;20194;-82
2022/12/27 06:16:18;;;;;;;3.67;1.80;;;2.30;99.90;;;;;;5035709;28;20241;-83
2022/12/27 06:18:44;;;;;;;4.30;1.70;;;2.20;99.90;;;;;;5035455;28;20222;-84
2022/12/27 06:21:13;;;;;;;4.40;1.93;;;2.20;99.90;;;;;;5053485;28;20170;-84
2022/12/27 06:23:40;;;;;;;5.87;2.27;;;2.10;99.90;;;;;;5034821;28;20206;-86
2022/12/27 06:26:08;;;;;;;4.00;2.63;;;2.00;99.90;;;;;;5035307;28;20170;-79
2022/12/27 06:28:34;;;;;;;3.67;1.97;;;2.00;99.90;;;;;;5035507;28;20183;-83
2022/12/27 06:31:00;;;;;;;3.50;2.00;;;2.00;99.90;;;;;;5053069;28;20649;-85
2022/12/27 06:33:27;;;;;;;4.57;2.10;;;1.90;99.90;;;;;;5034777;28;20212;-84
2022/12/27 06:35:53;;;;;;;6.93;1.80;;;1.90;99.90;;;;;;5053216;28;20537;-81
2022/12/27 06:38:18;;;;;;;3.73;1.70;;;2.00;99.90;;;;;;5033884;28;20669;-83
2022/12/27 06:40:44;;;;;;;4.23;1.90;;;2.00;99.90;;;;;;5032055;28;20258;-83
2022/12/27 06:43:09;;;;;;;5.23;2.33;;;2.00;99.90;;;;;;5018559;28;20209;-79
2022/12/27 06:45:35;;;;;;;6.13;2.07;;;2.00;99.90;;;;;;5019110;28;20257;-82
2022/12/27 06:48:01;;;;;;;5.40;1.77;;;2.00;99.90;;;;;;5019016;28;20230;-82
2022/12/27 06:50:26;;;;;;;4.17;1.90;;;2.00;99.90;;;;;;5018757;28;20183;-82
2022/12/27 06:52:52;;;;;;;5.73;2.13;;;2.00;99.90;;;;;;5027302;28;20307;-83
2022/12/27 06:55:17;;;;;;;3.93;2.20;;;2.00;99.90;;;;;;5056829;28;20175;-83
2022/12/27 06:57:43;;;;;;;3.50;2.13;;;2.00;99.90;;;;;;5038433;28;20591;-83
2022/12/27 07:00:12;;;;;;;3.90;1.83;;;2.00;99.90;;;;;;5038863;28;20175;-82
2022/12/27 07:02:38;;;;;;;2.97;1.87;;;2.00;99.90;;;;;;5037545;28;20297;-82
2022/12/27 07:05:04;;;;;;;3.40;1.90;;;1.90;99.90;;;;;;5055869;28;20178;-82
2022/12/27 07:07:30;;;;;;;2.37;1.83;;;2.00;99.90;;;;;;5038551;28;20733;-78
2022/12/27 07:09:57;;;;;;;4.13;2.20;;;2.00;99.90;;;;;;5038558;28;20272;-79
2022/12/27 07:12:22;;;;;;;3.93;2.00;;;2.00;99.90;;;;;;5059644;28;20197;-79
2022/12/27 07:14:48;;;;;;;7.73;2.27;;;2.10;99.90;;;;;;5041927;28;20178;-78
2022/12/27 07:17:13;;;;;;;6.17;2.37;;;2.10;99.90;;;;;;5058556;28;20197;-81
2022/12/27 07:19:39;;;;;;;3.27;2.17;;;2.10;99.90;;;;;;5040022;28;20555;-79
2022/12/27 07:22:04;;;;;;;6.43;2.90;;;2.20;99.90;;;;;;5061450;28;20171;-80
2022/12/27 07:24:32;;;;;;;4.60;2.27;;;2.20;99.90;;;;;;5040117;28;20656;-80
2022/12/27 07:26:58;;;;;;;3.53;2.43;;;2.20;99.90;;;;;;5039140;28;20267;-79
2022/12/27 07:29:23;;;;;;;3.87;2.40;;;2.30;99.90;;;;;;5039783;28;20202;-79
2022/12/27 07:31:49;;;;;;;6.07;2.53;;;2.30;99.90;;;;;;5037687;28;20197;-80
2022/12/27 07:34:14;;;;;;;5.93;2.27;;;2.20;99.90;;;;;;5037037;28;20228;-80
2022/12/27 07:36:40;;;;;;;6.40;2.80;;;2.20;99.90;;;;;;5055689;28;20198;-80
2022/12/27 07:39:07;;;;;;;5.87;2.77;;;2.10;99.90;;;;;;5038248;28;20648;-79
2022/12/27 07:41:32;;;;;;;5.80;2.87;;;2.10;99.90;;;;;;5038035;28;20680;-82
2022/12/27 07:43:58;;;;;;;7.40;3.00;;;2.10;99.90;;;;;;5039267;28;20199;-80
2022/12/27 07:46:25;;;;;;;7.00;3.17;;;2.10;99.90;;;;;;5036779;28;20182;-79
2022/12/27 07:48:55;;;;;;;5.57;2.77;;;2.10;99.90;;;;;;5037951;28;20209;-82
2022/12/27 07:51:21;;;;;;;5.37;2.93;;;2.10;99.90;;;;;;5056030;28;20178;-80
2022/12/27 07:53:48;;;;;;;4.50;2.93;;;2.20;99.90;;;;;;5053771;28;20216;-79
2022/12/27 07:56:23;;;;;;;5.03;3.03;;;2.20;99.90;;;;;;5055072;28;20206;-84
2022/12/27 07:58:49;;;;;;;4.53;2.80;;;2.20;99.90;;;;;;5037665;28;20174;-83
2022/12/27 08:01:18;;;;;;;6.70;2.80;;;2.20;99.90;;;;;;5038056;28;20181;-83
2022/12/27 08:03:44;;;;;;;8.60;3.27;;;2.20;99.90;;;;;;5054534;28;20272;-84
2022/12/27 08:06:21;;;;;;;3.80;2.70;;;2.30;99.90;;;;;;5037069;28;20206;-83
2022/12/27 08:08:48;;;;;;;7.33;3.20;;;2.30;99.90;;;;;;5037290;28;20269;-79
2022/12/27 08:11:14;;;;;;;7.07;3.70;;;2.30;99.90;;;;;;5037807;28;20171;-80
2022/12/27 08:13:39;;;;;;;8.10;3.80;;;2.30;99.90;;;;;;5036607;28;20206;-80
2022/12/27 08:16:06;;;;;;;9.23;3.50;;;2.30;99.90;;;;;;5054918;28;20578;-80
2022/12/27 08:18:31;;;;;;;5.07;3.17;;;2.40;99.90;;;;;;5036905;28;20177;-80
2022/12/27 08:20:57;;;;;;;8.23;3.70;;;2.40;99.90;;;;;;5036753;28;20563;-79
2022/12/27 08:23:22;;;;;;;7.17;3.30;;;2.50;99.90;;;;;;5036759;28;20189;-79
2022/12/27 08:25:48;;;;;;;4.30;3.03;;;2.60;99.90;;;;;;5054509;28;20219;-78
2022/12/27 08:28:16;;;;;;;6.17;3.13;;;2.60;99.90;;;;;;5037077;28;20274;-80
2022/12/27 08:30:45;;;;;;;8.20;3.40;;;2.60;99.90;;;;;;5036854;28;20205;-78
2022/12/27 08:33:11;;;;;;;4.13;3.13;;;2.60;99.90;;;;;;5036536;28;20204;-79
2022/12/27 08:35:44;;;;;;;4.53;2.93;;;2.60;99.90;;;;;;5036944;28;20178;-79
2022/12/27 08:38:09;;;;;;;6.57;3.30;;;2.70;99.90;;;;;;5036487;28;20203;-79
2022/12/27 08:40:40;;;;;;;5.00;3.83;;;2.70;99.90;;;;;;5021168;28;20202;-79
2022/12/27 08:43:05;;;;;;;5.67;3.77;;;2.70;99.90;;;;;;5016259;28;20630;-78
2022/12/27 08:45:31;;;;;;;5.60;3.60;;;2.70;99.90;;;;;;5016489;28;20180;-80
2022/12/27 08:47:58;;;;;;;4.33;3.10;;;2.70;99.90;;;;;;5016714;28;20182;-79
2022/12/27 08:50:24;;;;;;;7.30;3.30;;;2.80;99.90;;;;;;5021652;28;20179;-79
2022/12/27 08:52:50;;;;;;;5.00;3.40;;;2.70;99.90;;;;;;5035641;28;20239;-80
2022/12/27 08:55:15;;;;;;;6.20;3.30;;;2.80;99.90;;;;;;5052922;28;20227;-78
2022/12/27 08:57:41;;;;;;;5.17;3.30;;;2.80;99.90;;;;;;5016225;28;20199;-79
2022/12/27 09:00:07;;;;;;;7.17;3.50;;;2.90;99.90;;;;;;5034299;28;20248;-79
2022/12/27 09:02:33;;;;;;;5.37;3.53;;;3.00;99.90;;;;;;5018281;28;20233;-76
2022/12/27 09:04:58;;;;;;;7.30;3.40;;;3.10;99.90;;;;;;5034065;28;20191;-79
2022/12/27 09:07:24;;;;;;;4.93;3.07;;;3.10;99.90;;;;;;5050982;28;20243;-80
2022/12/27 09:09:49;;;;;;;4.23;3.27;;;3.10;99.90;;;;;;5050831;28;20235;-80
2022/12/27 09:12:15;;;;;;;7.07;3.33;;;3.20;99.90;;;;;;5034622;28;20203;-79
2022/12/27 09:14:41;;;;;;;6.17;3.10;;;3.20;99.90;;;;;;5032548;28;20187;-80
2022/12/27 09:17:08;;;;;;;5.40;3.40;;;3.20;99.90;;;;;;5049989;28;20205;-79
2022/12/27 09:19:34;;;;;;;6.23;3.43;;;3.30;99.90;;;;;;5047928;28;20209;-80
2022/12/27 09:22:00;;;;;;;6.10;3.30;;;3.20;99.90;;;;;;5032617;28;20673;-80
2022/12/27 09:24:25;;;;;;;6.23;4.27;;;3.30;99.90;;;;;;5032388;28;20183;-81
2022/12/27 09:26:51;;;;;;;4.40;3.60;;;3.40;99.90;;;;;;5027776;28;20182;-80
2022/12/27 09:29:17;;;;;;;5.97;3.33;;;3.40;99.90;;;;;;5031478;28;20187;-80
2022/12/27 09:31:42;;;;;;;8.53;3.30;;;3.50;99.90;;;;;;5031859;28;20177;-79
2022/12/27 09:34:09;;;;;;;5.03;3.50;;;3.60;99.90;;;;;;5031296;28;20196;-78
2022/12/27 09:36:38;;;;;;;4.67;3.00;;;3.70;99.90;;;;;;5050408;28;20670;-78
2022/12/27 09:39:03;;;;;;;7.27;3.63;;;3.70;99.90;;;;;;5052350;28;20176;-77
2022/12/27 09:42:26;;;;;;;5.40;3.30;;;3.70;99.90;;;;;;5041466;28;20184;-78
2022/12/27 09:44:58;;;;;;;7.53;3.90;;;3.80;99.90;;;;;;4972193;28;20326;-78
2022/12/27 09:47:26;;;;;;;6.20;3.27;;;4.00;99.90;;;;;;4971831;28;20666;-78
2022/12/27 09:49:57;;;;;;;7.97;3.90;;;4.00;99.90;;;;;;5009873;28;20192;-77
2022/12/27 09:52:34;;;;;;;6.20;3.50;;;4.00;99.90;;;;;;5029499;28;20684;-78
2022/12/27 09:55:38;;;;;;;6.10;3.30;;;4.10;99.90;;;;;;5035505;28;20177;-78
2022/12/27 09:58:29;;;;;;;4.43;3.17;;;4.20;99.90;;;;;;5033999;28;20220;-78
2022/12/27 10:00:55;;;;;;;8.73;3.77;;;4.30;99.90;;;;;;5053808;22;20262;-79
2022/12/27 10:03:24;;;;;;;6.90;4.10;;;4.40;99.90;;;;;;5045844;28;20260;-80
2022/12/27 10:06:08;;;;;;;4.60;3.40;;;4.40;99.90;;;;;;5053418;28;20176;-79
2022/12/27 10:08:55;;;;;;;5.20;3.10;;;4.50;99.90;;;;;;5052666;28;20662;-81
2022/12/27 10:11:35;;;;;;;6.17;3.43;;;4.40;99.90;;;;;;5030352;28;20202;-80
2022/12/27 10:14:17;;;;;;;4.70;3.00;;;4.50;99.90;;;;;;5016666;28;20212;-77
2022/12/27 10:17:01;;;;;;;9.23;3.47;;;4.50;99.90;;;;;;5036727;28;20219;-80
2022/12/27 10:20:00;;;;;;;7.07;3.37;;;4.60;99.90;;;;;;5033533;28;20173;-81
2022/12/27 10:22:47;;;;;;;5.87;3.20;;;4.90;99.90;;;;;;5041931;28;20186;-81
2022/12/27 10:25:17;;;;;;;10.13;6.03;;;5.00;99.90;;;;;;5057296;28;20158;-78
2022/12/27 10:27:43;;;;;;;5.13;2.93;;;5.00;99.90;;;;;;5039123;28;20177;-82
2022/12/27 10:30:18;;;;;;;4.23;2.80;;;4.90;99.90;;;;;;5056680;28;20201;-81
2022/12/27 10:32:44;;;;;;;4.93;2.43;;;4.80;99.90;;;;;;5056340;28;20173;-81
2022/12/27 10:35:14;;;;;;;4.73;2.57;;;4.60;99.90;;;;;;5038919;28;20552;-81
2022/12/27 10:37:39;;;;;;;5.43;2.30;;;4.70;99.90;;;;;;5038232;28;20699;-80
2022/12/27 10:40:18;;;;;;;4.93;2.50;;;4.70;99.90;;;;;;5038217;28;20174;-81
2022/12/27 10:43:02;;;;;;;4.37;2.37;;;4.70;99.90;;;;;;5055697;28;20703;-80
2022/12/27 10:45:31;;;;;;;4.23;2.87;;;4.70;99.90;;;;;;5050698;28;20514;-81
2022/12/27 10:48:15;;;;;;;6.07;3.17;;;4.60;99.90;;;;;;5038446;28;20190;-82
2022/12/27 10:50:46;;;;;;;4.10;3.00;;;4.60;99.90;;;;;;5056415;28;20213;-77
2022/12/27 10:53:37;;;;;;;4.93;3.40;;;4.60;99.90;;;;;;5037919;28;20237;-81
2022/12/27 10:56:08;;;;;;;5.07;3.60;;;4.70;99.90;;;;;;5038760;28;20193;-79
2022/12/27 10:58:34;;;;;;;4.70;3.27;;;4.80;99.90;;;;;;5037439;28;20178;-80
2022/12/27 11:00:59;;;;;;;6.10;3.83;;;4.80;99.90;;;;;;5037613;28;20315;-80
2022/12/27 11:03:27;;;;;;;4.70;3.57;;;4.90;99.90;;;;;;5055748;28;20162;-80
2022/12/27 11:06:04;;;;;;;6.33;4.53;;;5.00;99.90;;;;;;5056089;28;20173;-80
2022/12/27 11:08:30;;;;;;;4.87;2.70;;;5.00;99.90;;;;;;5054854;28;20683;-80
2022/12/27 11:11:35;;;;;;;4.67;3.10;;;4.80;99.90;;;;;;5056248;28;20193;-81
2022/12/27 11:14:15;;;;;;;4.07;3.43;;;4.70;99.90;;;;;;4955428;29;20247;-80
2022/12/27 11:16:42;;;;;;;5.47;3.10;;;4.70;99.90;;;;;;4956212;29;20231;-81
2022/12/27 11:19:21;;;;;;;8.07;3.27;;;4.70;99.90;;;;;;5004713;28;20182;-80
2022/12/27 11:21:47;;;;;;;6.27;3.40;;;4.70;99.90;;;;;;5038281;28;20660;-81
2022/12/27 11:24:15;;;;;;;8.03;3.87;;;4.80;99.90;;;;;;5055164;28;20234;-80
2022/12/27 11:26:53;;;;;;;6.57;3.87;;;4.90;99.90;;;;;;5056303;28;20174;-81
2022/12/27 11:29:21;;;;;;;4.70;2.90;;;5.30;99.90;;;;;;5056338;28;20162;-80
2022/12/27 11:31:47;;;;;;;6.60;2.60;;;5.50;99.90;;;;;;5055782;28;20189;-80
2022/12/27 11:34:33;;;;;;;4.50;2.70;;;5.80;99.90;;;;;;5037526;28;20174;-81
2022/12/27 11:37:14;;;;;;;4.53;3.67;;;5.50;99.90;;;;;;5056044;28;20213;-80
2022/12/27 11:39:42;;;;;;;4.40;3.17;;;5.60;99.90;;;;;;5037638;28;20162;-80
2022/12/27 11:42:17;;;;;;;5.00;2.97;;;5.70;99.90;;;;;;5037742;28;20239;-78
2022/12/27 11:44:50;;;;;;;6.30;3.40;;;5.60;99.90;;;;;;5038051;28;20197;-80
2022/12/27 11:47:31;;;;;;;4.40;2.87;;;5.50;99.90;;;;;;5055984;28;20617;-80
2022/12/27 11:50:27;;;;;;;4.33;3.10;;;5.30;99.90;;;;;;5037831;28;20223;-81
2022/12/27 11:53:30;;;;;;;4.33;3.10;;;5.50;99.90;;;;;;5037224;28;20182;-80
2022/12/27 11:56:26;;;;;;;6.43;3.00;;;5.50;99.90;;;;;;5037866;28;20162;-80
2022/12/27 11:58:55;;;;;;;3.77;2.47;;;5.90;99.90;;;;;;5055410;28;20166;-80
2022/12/27 12:01:24;;;;;;;6.37;3.27;;;6.10;99.90;;;;;;5055038;28;20658;-80
2022/12/27 12:03:55;;;;;;;7.90;5.13;;;6.10;99.90;;;;;;5036969;28;20337;-80
2022/12/27 12:06:30;;;;;;;8.00;3.47;;;5.90;99.90;;;;;;5035955;28;20261;-81
2022/12/27 12:09:14;;;;;;;6.67;3.00;;;5.70;99.90;;;;;;5038042;28;20532;-80
2022/12/27 12:12:08;;;;;;;4.27;2.10;;;5.60;99.90;;;;;;5037245;28;20190;-80
2022/12/27 12:15:16;;;;;;;5.97;2.40;;;5.50;99.90;;;;;;4965920;28;20185;-81
2022/12/27 12:18:09;;;;;;;4.00;2.43;;;5.30;99.90;;;;;;5055109;28;20209;-80
2022/12/27 12:20:42;;;;;;;3.17;2.40;;;5.30;99.90;;;;;;5055258;28;20197;-80
2022/12/27 12:23:19;;;;;;;5.90;2.70;;;5.60;99.90;;;;;;5054261;28;20146;-80
2022/12/27 12:26:03;;;;;;;6.17;3.10;;;5.60;99.90;;;;;;5054786;28;20157;-80
2022/12/27 12:28:31;;;;;;;4.23;2.83;;;5.50;99.90;;;;;;5055074;28;20169;-81
2022/12/27 12:31:27;;;;;;;3.90;2.60;;;5.40;99.90;;;;;;5055007;28;20190;-80
2022/12/27 12:34:19;;;;;;;5.80;3.00;;;5.40;99.90;;;;;;5054482;28;20158;-81
2022/12/27 12:36:56;;;;;;;7.53;2.50;;;5.50;99.90;;;;;;5054691;28;20197;-80
2022/12/27 12:39:40;;;;;;;6.07;2.70;;;5.60;99.90;;;;;;5054405;28;20249;-80
2022/12/27 12:42:21;;;;;;;5.17;2.50;;;5.70;99.90;;;;;;5036752;28;20202;-80
2022/12/27 12:45:16;;;;;;;5.17;2.77;;;5.60;99.90;;;;;;5036742;28;20178;-80
2022/12/27 12:48:07;;;;;;;4.77;2.80;;;5.60;99.90;;;;;;4996620;28;20269;-80
2022/12/27 12:50:58;;;;;;;3.90;2.53;;;5.60;99.90;;;;;;5009891;28;20209;-80
2022/12/27 12:53:36;;;;;;;4.27;2.80;;;5.50;99.90;;;;;;5053855;28;20170;-80
2022/12/27 12:56:19;;;;;;;4.73;2.30;;;5.50;99.90;;;;;;5054431;28;20625;-81
2022/12/27 12:59:14;;;;;;;5.27;2.63;;;5.40;99.90;;;;;;5034590;28;20536;-80
2022/12/27 13:01:51;;;;;;;5.27;2.90;;;5.20;99.90;;;;;;5016689;28;20207;-81
2022/12/27 13:04:51;;;;;;;6.23;2.60;;;5.20;99.90;;;;;;5033877;28;20234;-80
2022/12/27 13:07:32;;;;;;;4.90;2.63;;;5.10;99.90;;;;;;5033376;28;20178;-80
2022/12/27 13:10:12;;;;;;;5.70;2.73;;;5.10;99.90;;;;;;5016722;28;20217;-81
2022/12/27 13:13:10;;;;;;;6.50;2.57;;;5.10;99.90;;;;;;5016109;28;20646;-81
2022/12/27 13:16:17;;;;;;;4.67;2.47;;;5.20;99.90;;;;;;5034203;28;20710;-80
2022/12/27 13:19:01;;;;;;;4.90;2.33;;;5.10;99.90;;;;;;5033814;28;20182;-80
2022/12/27 13:21:44;;;;;;;5.33;2.90;;;5.10;99.90;;;;;;5033971;28;20603;-78
2022/12/27 13:24:35;;;;;;;5.60;2.70;;;5.20;99.90;;;;;;5033150;28;20159;-80
2022/12/27 13:27:27;;;;;;;8.43;2.70;;;5.10;99.90;;;;;;5034177;28;20162;-80
2022/12/27 13:30:02;;;;;;;4.30;2.80;;;5.20;99.90;;;;;;5016159;28;20227;-80
2022/12/27 13:32:46;;;;;;;8.40;2.80;;;5.30;99.90;;;;;;5015445;28;20760;-80
2022/12/27 13:35:48;;;;;;;6.63;2.43;;;5.30;99.90;;;;;;5016026;28;20520;-80
2022/12/27 13:38:41;;;;;;;4.50;2.53;;;5.40;99.90;;;;;;5016216;28;20548;-79
2022/12/27 13:41:48;;;;;;;6.13;2.57;;;5.40;99.90;;;;;;5016238;28;20196;-80
2022/12/27 13:44:35;;;;;;;5.43;2.80;;;5.40;99.90;;;;;;4996138;28;20205;-80
2022/12/27 13:47:15;;;;;;;5.73;2.40;;;5.30;99.90;;;;;;5033774;28;20186;-81
2022/12/27 13:50:11;;;;;;;7.83;2.73;;;5.20;99.90;;;;;;5033763;28;20167;-80
2022/12/27 13:53:28;;;;;;;5.70;2.70;;;5.10;99.90;;;;;;5015206;28;20250;-80
2022/12/27 13:56:04;;;;;;;6.10;2.97;;;5.10;99.90;;;;;;5016002;28;20197;-80
2022/12/27 13:58:35;;;;;;;5.20;2.90;;;5.10;99.90;;;;;;5015769;28;20186;-81
2022/12/27 14:01:28;;;;;;;8.67;3.10;;;5.00;99.90;;;;;;5033463;28;20209;-80
2022/12/27 14:04:21;;;;;;;4.20;2.97;;;5.00;99.90;;;;;;5015436;28;20159;-80
2022/12/27 14:07:11;;;;;;;4.83;3.13;;;5.00;99.90;;;;;;5032348;28;20647;-80
2022/12/27 14:09:58;;;;;;;7.63;3.13;;;5.00;99.90;;;;;;5033474;28;20155;-81
2022/12/27 14:12:47;;;;;;;5.50;2.80;;;4.90;99.90;;;;;;5015250;28;20202;-80
2022/12/27 14:15:27;;;;;;;4.83;3.00;;;4.90;99.90;;;;;;5033433;28;20162;-81
2022/12/27 14:18:23;;;;;;;6.47;3.03;;;4.90;99.90;;;;;;5015636;28;20550;-80
2022/12/27 14:21:08;;;;;;;5.77;2.93;;;4.80;99.90;;;;;;5015517;28;20276;-80
2022/12/27 14:23:54;;;;;;;6.10;2.90;;;4.80;99.90;;;;;;5032792;28;20170;-80
2022/12/27 14:26:44;;;;;;;5.83;3.23;;;4.70;99.90;;;;;;5015814;28;20159;-80
2022/12/27 14:29:27;;;;;;;6.87;3.37;;;4.60;99.90;;;;;;5032870;28;20167;-81
2022/12/27 14:32:17;;;;;;;5.93;2.90;;;4.60;99.90;;;;;;5033233;28;20209;-81
2022/12/27 14:35:04;;;;;;;5.77;3.10;;;4.50;99.90;;;;;;5032978;28;20163;-80
2022/12/27 14:38:16;;;;;;;6.93;3.07;;;4.50;99.90;;;;;;5039321;28;20186;-80
2022/12/27 14:40:51;;;;;;;9.93;4.77;;;4.50;99.90;;;;;;4976959;28;20723;-79
2022/12/27 14:43:37;;;;;;;6.53;3.37;;;4.40;99.90;;;;;;5034379;28;20718;-79
2022/12/27 14:46:31;;;;;;;6.00;3.40;;;4.40;99.90;;;;;;5033071;28;20159;-80
2022/12/27 14:49:31;;;;;;;5.37;2.73;;;4.30;99.90;;;;;;5031702;28;20519;-81
2022/12/27 14:52:27;;;;;;;8.80;3.20;;;4.30;99.90;;;;;;5012870;28;20354;-80
2022/12/27 14:55:16;;;;;;;5.10;2.60;;;4.40;99.90;;;;;;5034007;28;20166;-80
2022/12/27 14:57:54;;;;;;;7.50;2.97;;;4.40;99.90;;;;;;5015913;28;20201;-79
2022/12/27 15:00:23;;;;;;;4.60;2.73;;;4.30;99.90;;;;;;5015617;28;20255;-80
2022/12/27 15:03:12;;;;;;;6.67;3.30;;;4.30;99.90;;;;;;5019512;28;20188;-79
2022/12/27 15:06:02;;;;;;;7.73;3.00;;;4.30;99.90;;;;;;5039118;28;20174;-79
2022/12/27 15:08:59;;;;;;;4.33;2.83;;;4.40;99.90;;;;;;5043940;28;20263;-79
2022/12/27 15:11:38;;;;;;;4.50;3.00;;;4.30;99.90;;;;;;5019101;28;20196;-81
2022/12/27 15:14:22;;;;;;;5.63;2.90;;;4.30;99.90;;;;;;5018249;28;20166;-78
2022/12/27 15:17:06;;;;;;;9.00;3.17;;;4.30;99.90;;;;;;5037309;28;20237;-82